Startpagina
METAR-TAF:

METAR-TAF

Vliegvelden :

Internationale luchthaven Juan Santamaría

San José, Costa Rica

breedte: 10-00N, lengte: 084-13W, hoogte: 920 m

Actueel weer

Dit bericht is 28 minuten geleden gemaakt, om 15:00 UTC
Wind 21 kt uit het oosten met uitschieters tot 35 kt
Temperatuur 25°C
Vochtigheid 50%
Druk 1019 hPa
Zicht 10 km of meer
Weinig wolken op 4500 ft

METAR: MROC 281500Z 09021G35KT 9999 FEW045 25/14 A3010 NOSIG

Tijdstip: 09:28 (15:28 UTC)

Verwachting

Dit bericht is 4 uur en het 28 minuten geleden gemaakt, om 11:00 UTC
Verwachting geldig van 28 om 12 UTC tot 29 om 12 UTC
Wind 15 kt uit het oosten
Zicht 10 km of meer
Weinig wolken op 4000 ft
Tijdelijke
van 28 om 12 UTC tot 29 om 12 UTC
Wind 17 kt uit het oosten met uitschieters tot 28 kt

TAF: MROC 281100Z 2812/2912 09015KT 9999 FEW040 TX30/2819Z TN20/2911Z TEMPO 2812/2912 10017G28KT

Waarnemingen en weersverwachtingen van meer dan 4000 vliegvelden (METAR en TAF).

De beschikbare stations zijn de gele en rode punten op de kaart.

Ga met uw muis naar het station om de naam te zien.

Klik dan om waarnemingen en weersverwachtingen te zien.

kaart wijzigen: klik op de groene knoppen met een zwart kruis om in te zoomen, op de groene knop met een streepje om uit te zoomen of op de groene pijlen voor aangrenzende kaarten.


METAR-TAF: